createdAt,value
2023-02-19T00:01:49.586Z,3.80
2023-02-19T00:04:13.030Z,3.60
2023-02-19T00:06:34.852Z,3.47
2023-02-19T00:08:56.010Z,3.53
2023-02-19T00:11:18.305Z,3.40
2023-02-19T00:13:42.119Z,2.93
2023-02-19T00:16:07.166Z,3.20
2023-02-19T00:18:28.044Z,3.20
2023-02-19T00:20:49.336Z,3.03
2023-02-19T00:23:10.471Z,2.80
2023-02-19T00:25:31.757Z,2.80
2023-02-19T00:27:52.942Z,2.80
2023-02-19T00:30:15.286Z,2.53
2023-02-19T00:32:37.763Z,2.90
2023-02-19T00:34:58.892Z,2.67
2023-02-19T00:37:20.188Z,2.50
2023-02-19T00:39:41.577Z,2.90
2023-02-19T00:42:02.974Z,2.60
2023-02-19T00:44:24.405Z,2.60
2023-02-19T00:46:46.966Z,2.90
2023-02-19T00:49:09.869Z,2.80
2023-02-19T00:51:32.108Z,2.63
2023-02-19T00:53:53.522Z,2.30
2023-02-19T00:56:14.854Z,2.53
2023-02-19T00:58:36.442Z,2.70
2023-02-19T01:00:58.024Z,2.50
2023-02-19T01:03:19.353Z,2.47
2023-02-19T01:05:41.903Z,2.87
2023-02-19T01:08:03.159Z,2.67
2023-02-19T01:10:24.814Z,2.50
2023-02-19T01:12:45.815Z,2.50
2023-02-19T01:15:07.411Z,2.60
2023-02-19T01:17:28.385Z,2.70
2023-02-19T01:19:49.711Z,2.60
2023-02-19T01:22:12.384Z,2.60
2023-02-19T01:24:33.619Z,2.80
2023-02-19T01:26:54.948Z,2.67
2023-02-19T01:29:16.216Z,3.00
2023-02-19T01:31:37.812Z,2.60
2023-02-19T01:33:59.221Z,2.70
2023-02-19T01:36:20.533Z,2.90
2023-02-19T01:38:43.374Z,2.77
2023-02-19T01:41:05.943Z,2.67
2023-02-19T01:43:27.306Z,2.70
2023-02-19T01:45:48.391Z,3.37
2023-02-19T01:48:12.034Z,2.80
2023-02-19T01:50:35.971Z,2.60
2023-02-19T01:52:57.506Z,2.37
2023-02-19T01:55:20.616Z,2.80
2023-02-19T01:57:43.148Z,2.83
2023-02-19T02:00:06.016Z,2.70
2023-02-19T02:02:28.457Z,2.60
2023-02-19T02:04:49.528Z,2.70
2023-02-19T02:07:24.795Z,3.13
2023-02-19T02:10:03.357Z,3.07
2023-02-19T02:12:26.217Z,3.10
2023-02-19T02:14:48.841Z,2.77
2023-02-19T02:17:13.342Z,3.10
2023-02-19T02:19:45.946Z,3.37
2023-02-19T02:22:08.651Z,3.30
2023-02-19T02:24:38.266Z,2.73
2023-02-19T02:27:07.870Z,3.00
2023-02-19T02:29:47.039Z,3.00
2023-02-19T02:32:11.960Z,2.73
2023-02-19T02:34:35.796Z,2.70
2023-02-19T02:36:57.838Z,2.90
2023-02-19T02:39:20.806Z,2.60
2023-02-19T02:41:43.877Z,2.97
2023-02-19T02:44:05.029Z,2.90
2023-02-19T02:46:29.080Z,3.20
2023-02-19T02:48:53.871Z,3.00
2023-02-19T02:51:17.334Z,3.20
2023-02-19T02:54:00.151Z,2.77
2023-02-19T02:56:21.879Z,2.93
2023-02-19T02:58:43.308Z,3.20
2023-02-19T03:01:25.133Z,3.07
2023-02-19T03:03:48.481Z,2.70
2023-02-19T03:06:13.183Z,2.93
2023-02-19T03:08:36.939Z,2.90
2023-02-19T03:11:20.079Z,2.90
2023-02-19T03:13:58.941Z,2.43
2023-02-19T03:16:41.700Z,2.57
2023-02-19T03:19:28.401Z,2.37
2023-02-19T03:21:53.802Z,2.70
2023-02-19T03:24:33.277Z,2.70
2023-02-19T03:26:54.911Z,2.90
2023-02-19T03:29:26.378Z,2.23
2023-02-19T03:31:48.073Z,2.30
2023-02-19T03:34:11.245Z,2.60
2023-02-19T03:36:36.418Z,2.80
2023-02-19T03:39:00.911Z,3.00
2023-02-19T03:41:24.930Z,3.03
2023-02-19T03:43:50.444Z,2.70
2023-02-19T03:46:14.406Z,2.70
2023-02-19T03:48:36.564Z,2.47
2023-02-19T03:51:06.054Z,2.47
2023-02-19T03:53:30.923Z,2.67
2023-02-19T03:55:55.264Z,2.53
2023-02-19T03:58:19.567Z,2.90
2023-02-19T04:00:42.992Z,2.70
2023-02-19T04:03:08.169Z,2.50
2023-02-19T04:05:30.733Z,2.67
2023-02-19T04:07:54.170Z,2.90
2023-02-19T04:10:15.178Z,2.63
2023-02-19T04:12:39.427Z,2.83
2023-02-19T04:15:03.018Z,2.90
2023-02-19T04:17:26.339Z,2.60
2023-02-19T04:19:49.438Z,2.60
2023-02-19T04:22:11.329Z,2.50
2023-02-19T04:24:33.965Z,2.53
2023-02-19T04:26:55.011Z,2.30
2023-02-19T04:29:17.511Z,2.50
2023-02-19T04:31:38.900Z,2.50
2023-02-19T04:33:59.839Z,2.30
2023-02-19T04:36:21.006Z,2.83
2023-02-19T04:38:42.153Z,2.57
2023-02-19T04:41:03.445Z,2.63
2023-02-19T04:43:24.623Z,2.30
2023-02-19T04:45:47.470Z,2.40
2023-02-19T04:48:09.041Z,2.67
2023-02-19T04:50:30.348Z,2.60
2023-02-19T04:52:51.997Z,2.50
2023-02-19T04:55:13.119Z,2.60
2023-02-19T04:57:34.440Z,2.40
2023-02-19T04:59:55.770Z,3.10
2023-02-19T05:02:18.378Z,3.90
2023-02-19T05:04:39.678Z,6.43
2023-02-19T05:07:00.999Z,7.40
2023-02-19T05:09:22.322Z,4.00
2023-02-19T05:11:43.491Z,8.63
2023-02-19T05:14:04.812Z,2.40
2023-02-19T05:16:26.177Z,1.90
2023-02-19T05:18:48.743Z,1.80
2023-02-19T05:21:10.402Z,3.90
2023-02-19T05:23:32.126Z,2.50
2023-02-19T05:25:53.601Z,2.20
2023-02-19T05:28:21.020Z,1.30
2023-02-19T05:30:42.300Z,1.20
2023-02-19T05:33:03.445Z,1.40
2023-02-19T05:35:25.998Z,1.50
2023-02-19T05:37:47.058Z,1.60
2023-02-19T05:40:08.487Z,1.10
2023-02-19T05:42:29.387Z,1.10
2023-02-19T05:44:50.614Z,1.20
2023-02-19T05:47:11.869Z,1.10
2023-02-19T05:49:33.073Z,1.20
2023-02-19T05:51:55.814Z,1.07
2023-02-19T05:54:17.118Z,1.00
2023-02-19T05:56:39.348Z,1.07
2023-02-19T05:59:00.464Z,0.90
2023-02-19T06:01:22.633Z,0.90
2023-02-19T06:03:43.840Z,1.07
2023-02-19T06:06:05.299Z,0.90
2023-02-19T06:08:27.709Z,1.10
2023-02-19T06:10:49.008Z,1.10
2023-02-19T06:13:10.882Z,0.90
2023-02-19T06:15:31.936Z,0.90
2023-02-19T06:17:53.074Z,0.70
2023-02-19T06:20:14.485Z,1.00
2023-02-19T06:22:35.511Z,1.00
2023-02-19T06:24:58.129Z,0.80
2023-02-19T06:27:19.036Z,0.80
2023-02-19T06:29:40.401Z,1.03
2023-02-19T06:32:02.252Z,0.97
2023-02-19T06:34:23.604Z,1.00
2023-02-19T06:36:45.006Z,0.80
2023-02-19T06:39:06.567Z,0.90
2023-02-19T06:41:29.027Z,0.70
2023-02-19T06:43:50.212Z,1.00
2023-02-19T06:46:12.099Z,1.00
2023-02-19T06:48:33.370Z,0.93
2023-02-19T06:50:54.600Z,0.90
2023-02-19T06:53:16.289Z,0.70
2023-02-19T06:55:38.145Z,0.80
2023-02-19T06:58:00.695Z,1.10
2023-02-19T07:00:22.061Z,1.37
2023-02-19T07:02:42.997Z,1.30
2023-02-19T07:05:04.330Z,1.67
2023-02-19T07:07:25.553Z,0.87
2023-02-19T07:09:47.020Z,1.90
2023-02-19T07:12:10.040Z,1.60
2023-02-19T07:14:32.767Z,1.57
2023-02-19T07:16:53.783Z,1.70
2023-02-19T07:19:15.843Z,1.53
2023-02-19T07:21:37.816Z,1.50
2023-02-19T07:23:59.058Z,1.20
2023-02-19T07:26:20.699Z,0.80
2023-02-19T07:28:42.009Z,1.00
2023-02-19T07:31:05.113Z,1.07
2023-02-19T07:33:26.405Z,1.10
2023-02-19T07:35:47.756Z,0.80
2023-02-19T07:38:09.102Z,1.00
2023-02-19T07:40:30.336Z,0.90
2023-02-19T07:42:51.809Z,1.10
2023-02-19T07:45:13.255Z,1.10
2023-02-19T07:47:35.963Z,0.90
2023-02-19T07:49:57.301Z,1.10
2023-02-19T07:52:18.768Z,0.90
2023-02-19T07:54:39.982Z,1.10
2023-02-19T07:57:01.277Z,1.13
2023-02-19T07:59:22.650Z,1.57
2023-02-19T08:02:01.476Z,1.20
2023-02-19T08:04:24.182Z,1.30
2023-02-19T08:06:45.334Z,1.10
2023-02-19T08:09:07.040Z,1.17
2023-02-19T08:11:45.869Z,1.20
2023-02-19T08:14:07.201Z,1.03
2023-02-19T08:16:42.039Z,0.90
2023-02-19T08:19:04.917Z,1.00
2023-02-19T08:21:27.555Z,1.20
2023-02-19T08:23:51.155Z,1.10
2023-02-19T08:26:12.932Z,1.13
2023-02-19T08:28:33.902Z,1.10
2023-02-19T08:30:55.038Z,1.30
2023-02-19T08:33:17.345Z,1.27
2023-02-19T08:35:38.420Z,1.20
2023-02-19T08:38:01.182Z,1.30
2023-02-19T08:40:22.490Z,1.50
2023-02-19T08:42:43.693Z,1.57
2023-02-19T08:45:05.303Z,1.10
2023-02-19T08:47:26.661Z,1.40
2023-02-19T08:49:47.995Z,1.13
2023-02-19T08:52:09.379Z,1.17
2023-02-19T08:54:32.389Z,1.30
2023-02-19T08:56:53.626Z,1.10
2023-02-19T08:59:14.964Z,1.23
2023-02-19T09:01:36.302Z,1.10
2023-02-19T09:03:57.578Z,1.20
2023-02-19T09:06:19.990Z,1.10
2023-02-19T09:08:40.899Z,1.20
2023-02-19T09:11:04.514Z,1.10
2023-02-19T09:13:25.758Z,1.30
2023-02-19T09:15:47.089Z,1.20
2023-02-19T09:18:08.439Z,1.20
2023-02-19T09:20:29.967Z,1.43
2023-02-19T09:22:51.165Z,1.40
2023-02-19T09:25:12.562Z,1.00
2023-02-19T09:27:35.384Z,1.30
2023-02-19T09:29:56.975Z,1.17
2023-02-19T09:32:19.204Z,1.40
2023-02-19T09:34:40.988Z,1.40
2023-02-19T09:37:02.207Z,1.53
2023-02-19T09:39:23.514Z,1.10
2023-02-19T09:41:46.499Z,1.40
2023-02-19T09:44:11.388Z,1.40
2023-02-19T09:46:34.126Z,1.20
2023-02-19T09:48:56.924Z,1.10
2023-02-19T09:51:18.213Z,1.30
2023-02-19T09:53:42.203Z,1.43
2023-02-19T09:56:03.258Z,1.53
2023-02-19T09:58:27.187Z,1.27
2023-02-19T10:00:50.779Z,1.60
2023-02-19T10:03:13.631Z,1.30
2023-02-19T10:05:34.924Z,1.40
2023-02-19T10:07:56.619Z,1.43
2023-02-19T10:10:39.107Z,1.40
2023-02-19T10:13:03.741Z,1.40
2023-02-19T10:15:27.672Z,1.37
2023-02-19T10:17:50.144Z,1.20
2023-02-19T10:20:13.930Z,1.10
2023-02-19T10:22:37.934Z,1.30
2023-02-19T10:24:59.241Z,1.20
2023-02-19T10:27:20.248Z,1.43
2023-02-19T10:29:41.616Z,1.50
2023-02-19T10:32:18.185Z,1.43
2023-02-19T10:34:40.569Z,1.30
2023-02-19T10:37:01.431Z,1.10
2023-02-19T10:39:32.599Z,1.53
2023-02-19T10:41:54.495Z,1.37
2023-02-19T10:44:16.602Z,1.30
2023-02-19T10:46:38.662Z,1.23
2023-02-19T10:49:01.904Z,1.67
2023-02-19T10:51:31.883Z,1.90
2023-02-19T10:54:03.837Z,1.50
2023-02-19T10:56:25.882Z,1.50
2023-02-19T10:58:47.734Z,1.37
2023-02-19T11:01:16.681Z,1.17
2023-02-19T11:03:38.135Z,1.30
2023-02-19T11:06:02.062Z,1.30
2023-02-19T11:08:25.164Z,1.40
2023-02-19T11:10:48.597Z,1.67
2023-02-19T11:13:15.494Z,1.20
2023-02-19T11:15:37.996Z,1.80
2023-02-19T11:18:01.379Z,1.43
2023-02-19T11:20:22.496Z,1.20
2023-02-19T11:22:46.870Z,2.27
2023-02-19T11:25:25.390Z,1.37
2023-02-19T11:27:54.672Z,1.23
2023-02-19T11:30:35.188Z,1.70
2023-02-19T11:32:57.372Z,1.53
2023-02-19T11:35:22.688Z,1.50
2023-02-19T11:37:54.874Z,1.30
2023-02-19T11:40:17.588Z,1.37
2023-02-19T11:42:41.909Z,2.07
2023-02-19T11:45:10.093Z,1.40
2023-02-19T11:47:49.741Z,1.50
2023-02-19T11:50:16.623Z,1.30
2023-02-19T11:52:41.760Z,1.30
2023-02-19T11:55:07.017Z,1.73
2023-02-19T11:57:40.038Z,1.20
2023-02-19T12:00:04.866Z,1.50
2023-02-19T12:02:44.651Z,1.70
2023-02-19T12:05:29.676Z,1.23
2023-02-19T12:07:58.999Z,1.40
2023-02-19T12:10:21.921Z,1.27
2023-02-19T12:12:52.574Z,1.50
2023-02-19T12:15:20.993Z,1.47
2023-02-19T12:17:48.496Z,1.33
2023-02-19T12:20:18.240Z,1.40
2023-02-19T12:22:41.474Z,1.20
2023-02-19T12:25:08.411Z,1.13
2023-02-19T12:27:36.498Z,1.40
2023-02-19T12:30:13.113Z,1.10
2023-02-19T12:32:42.269Z,1.23
2023-02-19T12:35:30.393Z,1.13
2023-02-19T12:37:54.079Z,1.40
2023-02-19T12:40:25.090Z,1.63
2023-02-19T12:42:53.296Z,1.37
2023-02-19T12:45:20.309Z,1.27
2023-02-19T12:47:43.448Z,1.30
2023-02-19T12:50:06.702Z,1.30
2023-02-19T12:52:29.212Z,1.03
2023-02-19T12:54:53.183Z,1.40
2023-02-19T12:57:19.381Z,1.37
2023-02-19T12:59:43.242Z,1.60
2023-02-19T13:02:11.187Z,1.20
2023-02-19T13:04:37.968Z,1.40
2023-02-19T13:07:00.329Z,1.30
2023-02-19T13:09:24.697Z,1.33
2023-02-19T13:11:49.642Z,1.13
2023-02-19T13:14:16.353Z,1.40
2023-02-19T13:16:39.511Z,1.10
2023-02-19T13:19:03.012Z,1.20
2023-02-19T13:21:44.175Z,1.43
2023-02-19T13:24:08.796Z,1.47
2023-02-19T13:26:39.878Z,1.30
2023-02-19T13:29:06.126Z,1.40
2023-02-19T13:31:36.093Z,1.30
2023-02-19T13:34:03.188Z,1.37
2023-02-19T13:36:26.957Z,1.37
2023-02-19T13:38:49.179Z,1.30
2023-02-19T13:41:21.238Z,1.40
2023-02-19T13:43:43.365Z,1.40
2023-02-19T13:46:05.906Z,1.60
2023-02-19T13:48:28.140Z,1.30
2023-02-19T13:50:49.318Z,2.30
2023-02-19T13:53:29.617Z,1.57
2023-02-19T13:55:54.106Z,1.50
2023-02-19T13:58:45.335Z,1.30
2023-02-19T14:01:06.832Z,2.53
2023-02-19T14:03:28.203Z,1.60
2023-02-19T14:05:59.919Z,1.20
2023-02-19T14:08:46.839Z,1.60
2023-02-19T14:11:09.739Z,1.50
2023-02-19T14:13:50.628Z,1.17
2023-02-19T14:16:29.468Z,1.20
2023-02-19T14:18:52.747Z,1.33
2023-02-19T14:21:18.823Z,1.40
2023-02-19T14:23:40.799Z,1.13
2023-02-19T14:26:05.011Z,1.40
2023-02-19T14:28:33.586Z,1.33
2023-02-19T14:30:56.104Z,1.57
2023-02-19T14:33:18.424Z,1.57
2023-02-19T14:35:41.553Z,1.13
2023-02-19T14:38:03.797Z,1.50
2023-02-19T14:40:27.500Z,1.43
2023-02-19T14:42:49.471Z,1.43
2023-02-19T14:45:12.263Z,1.43
2023-02-19T14:47:35.123Z,1.37
2023-02-19T14:49:59.195Z,1.37
2023-02-19T14:52:24.764Z,1.20
2023-02-19T14:54:49.236Z,1.40
2023-02-19T14:57:13.871Z,1.33
2023-02-19T14:59:35.285Z,1.60
2023-02-19T15:01:59.077Z,1.50
2023-02-19T15:04:22.928Z,1.70
2023-02-19T15:06:44.157Z,1.40
2023-02-19T15:09:07.064Z,1.43
2023-02-19T15:11:29.821Z,1.60
2023-02-19T15:13:52.154Z,1.50
2023-02-19T15:16:18.358Z,1.60
2023-02-19T15:18:41.296Z,2.00
2023-02-19T15:21:03.992Z,1.30
2023-02-19T15:23:25.917Z,1.57
2023-02-19T15:25:48.149Z,1.93
2023-02-19T15:28:19.643Z,1.60
2023-02-19T15:30:41.030Z,1.60
2023-02-19T15:33:02.354Z,1.80
2023-02-19T15:35:26.024Z,2.00
2023-02-19T15:37:47.015Z,2.27
2023-02-19T15:40:09.187Z,2.77
2023-02-19T15:42:31.457Z,1.70
2023-02-19T15:44:57.056Z,2.30
2023-02-19T15:47:22.891Z,2.93
2023-02-19T15:49:47.788Z,2.33
2023-02-19T15:52:12.303Z,1.83
2023-02-19T15:54:34.995Z,1.83
2023-02-19T15:56:58.462Z,2.20
2023-02-19T15:59:23.979Z,2.17
2023-02-19T16:01:45.373Z,1.50
2023-02-19T16:04:12.337Z,1.70
2023-02-19T16:06:51.451Z,1.70
2023-02-19T16:09:21.674Z,1.90
2023-02-19T16:11:49.476Z,1.83
2023-02-19T16:14:17.108Z,2.20
2023-02-19T16:16:41.287Z,1.60
2023-02-19T16:19:02.583Z,1.63
2023-02-19T16:21:24.527Z,1.80
2023-02-19T16:23:47.624Z,1.70
2023-02-19T16:26:10.398Z,2.10
2023-02-19T16:28:34.934Z,2.10
2023-02-19T16:30:57.228Z,1.63
2023-02-19T16:33:36.683Z,2.00
2023-02-19T16:35:59.171Z,1.83
2023-02-19T16:38:20.971Z,1.67
2023-02-19T16:41:03.152Z,2.03
2023-02-19T16:43:38.672Z,2.07
2023-02-19T16:45:59.964Z,2.27
2023-02-19T16:48:22.443Z,2.07
2023-02-19T16:50:43.981Z,2.30
2023-02-19T16:53:05.082Z,2.07
2023-02-19T16:55:26.894Z,3.03
2023-02-19T16:57:48.225Z,6.10
2023-02-19T17:00:19.837Z,2.77
2023-02-19T17:02:41.020Z,2.30
2023-02-19T17:05:02.504Z,2.70
2023-02-19T17:07:23.881Z,2.30
2023-02-19T17:09:45.012Z,3.20
2023-02-19T17:12:06.813Z,2.70
2023-02-19T17:14:28.161Z,2.00
2023-02-19T17:16:50.915Z,2.30
2023-02-19T17:19:13.737Z,2.40
2023-02-19T17:21:35.878Z,2.00
2023-02-19T17:23:57.573Z,2.30
2023-02-19T17:26:19.873Z,2.10
2023-02-19T17:28:41.528Z,3.00
2023-02-19T17:31:03.013Z,2.50
2023-02-19T17:33:25.586Z,3.87
2023-02-19T17:35:47.130Z,4.30
2023-02-19T17:38:10.395Z,4.43
2023-02-19T17:40:33.972Z,3.03
2023-02-19T17:42:55.016Z,3.30
2023-02-19T17:45:16.576Z,4.13
2023-02-19T17:47:37.931Z,3.17
2023-02-19T17:50:01.227Z,5.17
2023-02-19T17:52:22.443Z,5.17
2023-02-19T17:54:44.025Z,3.33
2023-02-19T17:57:05.179Z,2.67
2023-02-19T17:59:26.511Z,5.20
2023-02-19T18:01:47.731Z,3.00
2023-02-19T18:04:09.007Z,5.30
2023-02-19T18:06:31.696Z,4.20
2023-02-19T18:08:53.808Z,3.10
2023-02-19T18:11:15.012Z,5.13
2023-02-19T18:13:36.057Z,3.60
2023-02-19T18:15:57.483Z,3.77
2023-02-19T18:18:18.787Z,3.67
2023-02-19T18:20:40.209Z,3.23
2023-02-19T18:23:03.494Z,3.83
2023-02-19T18:25:24.718Z,3.70
2023-02-19T18:27:45.867Z,3.43
2023-02-19T18:30:07.920Z,3.87
2023-02-19T18:32:30.108Z,3.67
2023-02-19T18:34:51.735Z,3.23
2023-02-19T18:37:12.875Z,3.50
2023-02-19T18:39:35.580Z,3.30
2023-02-19T18:41:58.090Z,3.07
2023-02-19T18:44:20.109Z,3.50
2023-02-19T18:46:41.407Z,4.10
2023-02-19T18:49:02.691Z,3.70
2023-02-19T18:51:24.530Z,3.70
2023-02-19T18:53:45.447Z,3.97
2023-02-19T18:56:09.239Z,4.03
2023-02-19T18:58:30.457Z,4.40
2023-02-19T19:00:52.070Z,4.03
2023-02-19T19:03:13.672Z,4.67
2023-02-19T19:05:34.857Z,4.63
2023-02-19T19:07:57.726Z,4.73
2023-02-19T19:10:19.319Z,4.10
2023-02-19T19:12:41.764Z,5.00
2023-02-19T19:15:03.256Z,5.13
2023-02-19T19:17:24.559Z,4.80
2023-02-19T19:19:45.948Z,5.00
2023-02-19T19:22:07.364Z,3.73
2023-02-19T19:24:28.927Z,4.03
2023-02-19T19:26:50.670Z,4.50
2023-02-19T19:29:14.515Z,4.60
2023-02-19T19:31:36.768Z,5.10
2023-02-19T19:33:58.313Z,3.50
2023-02-19T19:36:20.543Z,3.87
2023-02-19T19:38:42.106Z,4.30
2023-02-19T19:41:03.801Z,4.33
2023-02-19T19:43:26.993Z,4.63
2023-02-19T19:45:50.388Z,4.83
2023-02-19T19:48:11.448Z,4.97
2023-02-19T19:50:32.668Z,4.80
2023-02-19T19:52:54.063Z,4.60
2023-02-19T19:55:16.150Z,5.40
2023-02-19T19:57:38.527Z,4.97
2023-02-19T20:00:01.785Z,4.07
2023-02-19T20:02:24.747Z,4.20
2023-02-19T20:04:45.823Z,4.10
2023-02-19T20:07:07.254Z,3.50
2023-02-19T20:09:29.173Z,3.80
2023-02-19T20:11:51.309Z,3.83
2023-02-19T20:14:12.570Z,3.77
2023-02-19T20:16:34.357Z,4.07
2023-02-19T20:18:56.975Z,3.93
2023-02-19T20:21:18.138Z,3.80
2023-02-19T20:23:39.566Z,4.17
2023-02-19T20:26:00.882Z,4.30
2023-02-19T20:28:22.053Z,3.87
2023-02-19T20:30:43.746Z,3.67
2023-02-19T20:33:05.028Z,4.30
2023-02-19T20:35:29.792Z,4.27
2023-02-19T20:37:50.905Z,4.43
2023-02-19T20:40:12.922Z,4.33
2023-02-19T20:42:34.042Z,4.27
2023-02-19T20:44:56.464Z,4.37
2023-02-19T20:47:18.041Z,4.40
2023-02-19T20:49:39.084Z,4.33
2023-02-19T20:52:02.625Z,4.63
2023-02-19T20:54:25.057Z,4.60
2023-02-19T20:56:46.130Z,4.70
2023-02-19T20:59:07.207Z,4.67
2023-02-19T21:01:28.581Z,4.40
2023-02-19T21:03:49.795Z,5.40
2023-02-19T21:06:11.540Z,5.83
2023-02-19T21:08:35.546Z,5.57
2023-02-19T21:10:57.088Z,5.53
2023-02-19T21:13:18.522Z,4.63
2023-02-19T21:15:39.788Z,4.20
2023-02-19T21:18:01.158Z,4.40
2023-02-19T21:20:22.669Z,4.47
2023-02-19T21:22:43.930Z,4.47
2023-02-19T21:25:06.894Z,4.77
2023-02-19T21:27:28.181Z,4.80
2023-02-19T21:29:49.031Z,4.83
2023-02-19T21:32:10.356Z,5.50
2023-02-19T21:34:31.771Z,5.00
2023-02-19T21:36:53.588Z,5.70
2023-02-19T21:39:15.946Z,5.27
2023-02-19T21:41:38.474Z,5.43
2023-02-19T21:43:59.775Z,6.20
2023-02-19T21:46:21.585Z,5.07
2023-02-19T21:48:42.537Z,4.93
2023-02-19T21:51:04.561Z,5.47
2023-02-19T21:53:25.713Z,6.20
2023-02-19T21:55:58.421Z,4.80
2023-02-19T21:58:21.679Z,4.50
2023-02-19T22:00:43.072Z,4.13
2023-02-19T22:03:04.428Z,5.20
2023-02-19T22:05:26.229Z,5.37
2023-02-19T22:07:48.215Z,4.70
2023-02-19T22:10:10.120Z,4.97
2023-02-19T22:12:31.106Z,4.60
2023-02-19T22:14:53.765Z,4.67
2023-02-19T22:17:14.840Z,3.73
2023-02-19T22:19:36.162Z,4.67
2023-02-19T22:21:57.405Z,4.43
2023-02-19T22:24:19.469Z,3.90
2023-02-19T22:26:40.562Z,4.60
2023-02-19T22:29:05.825Z,4.17
2023-02-19T22:31:28.900Z,4.20
2023-02-19T22:33:49.983Z,3.57
2023-02-19T22:36:18.104Z,4.13
2023-02-19T22:38:39.069Z,4.13
2023-02-19T22:41:00.545Z,4.20
2023-02-19T22:43:21.813Z,3.97
2023-02-19T22:45:43.228Z,4.80
2023-02-19T22:48:06.085Z,4.70
2023-02-19T22:50:27.596Z,3.93
2023-02-19T22:52:48.864Z,4.30
2023-02-19T22:55:09.987Z,4.40
2023-02-19T22:57:31.504Z,4.33
2023-02-19T22:59:52.636Z,4.10
2023-02-19T23:02:13.765Z,4.30
2023-02-19T23:04:36.345Z,4.50
2023-02-19T23:06:57.527Z,4.43
2023-02-19T23:09:19.911Z,4.23
2023-02-19T23:11:41.379Z,4.33
2023-02-19T23:14:03.137Z,4.60
2023-02-19T23:16:24.683Z,4.00
2023-02-19T23:18:45.991Z,4.60
2023-02-19T23:21:08.952Z,4.40
2023-02-19T23:23:30.042Z,4.67
2023-02-19T23:25:51.179Z,4.70
2023-02-19T23:28:12.597Z,4.00
2023-02-19T23:30:34.004Z,4.30
2023-02-19T23:32:55.250Z,4.27
2023-02-19T23:35:16.775Z,4.20
2023-02-19T23:37:39.427Z,6.80
2023-02-19T23:40:00.689Z,4.67
2023-02-19T23:42:22.164Z,4.40
2023-02-19T23:44:43.635Z,3.70
2023-02-19T23:47:04.674Z,4.10
2023-02-19T23:49:26.026Z,4.23
2023-02-19T23:51:47.266Z,4.23
2023-02-19T23:54:09.885Z,4.10
2023-02-19T23:56:31.082Z,3.87
2023-02-19T23:58:52.468Z,3.87
